Terminal Aerodrome Forecast
Issued by NWS Austin/San Antonio, TX

Home | Current Version | Previous Version | Text Only | Print | Product List | Glossary On
Versions: 1 2 3 4 5 6 7 8 9 10 11 12 13 14 15 16 17
549
FTUS44 KEWX 030657 AAA
TAFAUS
TAF AMD
KAUS 030657Z 0307/0412 04011KT 4SM -RA BR SCT005 OVC012
      TEMPO 0307/0310 2SM SHRA BR OVC005
     FM031000 03012KT 2SM SHRA OVC006
     FM032000 01012KT 5SM -RA OVC010
     FM041000 36010KT 2SM SHRA OVC005=

USA.gov is the U.S. government's official web portal to all federal, state and local government web resources and services.